KNYG/NYG METAR and TAF weather

Enter ICAO airport designator
Station Type Date Time Source
KNYG METAR 2019/06/16 11:56 UTC NOAA

KNYG 161156Z AUTO 21009KT 10SM CLR 22/16 A2994 RMK AO2 SLP140 T02220156 10228 20211 56003


Station Type Date Time Source
KNYG Decoded METAR 2019/06/16 11:56 UTC NOAA

QUANTICO MARINE CORPS AIRFAC, VA, United States (KNYG) 38-30N 077-18W 3M
Jun 16, 2019 - 07:56 AM EDT / 2019.06.16 1156 UTC
Wind: from the SSW (210 degrees) at 10 MPH (9 KT):0
Visibility: 10 mile(s):0
Sky conditions: clear
Temperature: 72.0 F (22.2 C)
Dew Point: 60.1 F (15.6 C)
Relative Humidity: 66%
Pressure (altimeter): 29.94 in. Hg (1013 hPa)
Pressure tendency: 0.01 inches (0.3 hPa) lower than three hours ago
ob: KNYG 161156Z AUTO 21009KT 10SM CLR 22/16 A2994 RMK AO2 SLP140 T02220156 10228 20211 56003
cycle: 12

Station Type Date Time Source
KNYG TAF 2019/06/15 15:57 UTC NOAA

TAF KNYG 1515/1615 22009G22KT 9999 SCT120 520004 QNH3001INS
BECMG 1600/1602 19009KT 9999 BKN120 520002 QNH2993INS T27/1521Z T17/1609Z LAST NO AMENDS UNTIL 1709Z

Example: see airport list